createdAt,value
2022-10-13T00:00:54.225Z,93.99
2022-10-13T00:03:20.764Z,94.10
2022-10-13T00:05:49.225Z,94.14
2022-10-13T00:08:19.246Z,93.81
2022-10-13T00:10:47.999Z,93.94
2022-10-13T00:13:15.591Z,93.99
2022-10-13T00:15:44.635Z,94.02
2022-10-13T00:18:11.189Z,93.93
2022-10-13T00:20:42.578Z,94.05
2022-10-13T00:23:08.931Z,93.94
2022-10-13T00:25:35.295Z,93.97
2022-10-13T00:28:01.646Z,94.23
2022-10-13T00:30:35.161Z,94.17
2022-10-13T00:35:27.847Z,94.37
2022-10-13T00:37:54.222Z,94.37
2022-10-13T00:40:20.582Z,94.41
2022-10-13T00:42:46.912Z,94.59
2022-10-13T00:45:26.650Z,94.53
2022-10-13T00:47:58.856Z,94.66
2022-10-13T00:50:33.531Z,94.74
2022-10-13T00:53:02.695Z,94.69
2022-10-13T00:55:34.848Z,94.69
2022-10-13T00:58:05.525Z,94.85
2022-10-13T01:00:33.165Z,94.87
2022-10-13T01:03:00.262Z,94.90
2022-10-13T01:05:26.893Z,95.01
2022-10-13T01:07:56.718Z,95.01
2022-10-13T01:10:34.788Z,95.09
2022-10-13T01:13:15.110Z,95.18
2022-10-13T01:15:57.967Z,95.23
2022-10-13T01:18:40.433Z,95.38
2022-10-13T01:21:14.526Z,95.57
2022-10-13T01:24:04.082Z,95.43
2022-10-13T01:26:42.386Z,95.49
2022-10-13T01:29:20.166Z,95.54
2022-10-13T01:32:01.804Z,95.54
2022-10-13T01:34:49.280Z,95.67
2022-10-13T01:37:26.726Z,95.74
2022-10-13T01:40:15.089Z,95.54
2022-10-13T01:43:01.035Z,95.29
2022-10-13T01:45:44.457Z,95.17
2022-10-13T01:48:11.768Z,95.18
2022-10-13T01:50:40.726Z,95.26
2022-10-13T01:53:08.138Z,95.20
2022-10-13T01:55:34.456Z,95.14
2022-10-13T01:58:00.766Z,95.02
2022-10-13T02:00:30.014Z,94.90
2022-10-13T02:03:11.281Z,94.96
2022-10-13T02:05:49.225Z,94.74
2022-10-13T02:08:28.351Z,94.85
2022-10-13T02:11:26.198Z,94.88
2022-10-13T02:14:03.269Z,95.02
2022-10-13T02:16:34.100Z,94.84
2022-10-13T02:19:04.584Z,94.88
2022-10-13T02:21:32.016Z,94.89
2022-10-13T02:24:03.422Z,94.97
2022-10-13T02:26:32.247Z,95.12
2022-10-13T02:29:10.653Z,95.22
2022-10-13T02:34:03.946Z,95.27
2022-10-13T02:38:56.958Z,95.27
2022-10-13T02:41:23.354Z,95.41
2022-10-13T02:43:49.662Z,95.42
2022-10-13T02:46:16.033Z,95.52
2022-10-13T02:48:42.356Z,95.56
2022-10-13T02:51:08.798Z,95.59
2022-10-13T02:53:35.202Z,95.58
2022-10-13T02:56:02.403Z,95.71
2022-10-13T02:58:31.421Z,95.75
2022-10-13T03:01:10.298Z,95.90
2022-10-13T03:03:37.160Z,96.01
2022-10-13T03:06:04.280Z,95.93
2022-10-13T03:08:32.634Z,95.97
2022-10-13T03:10:59.243Z,96.01
2022-10-13T03:13:25.591Z,96.00
2022-10-13T03:15:51.914Z,96.01
2022-10-13T03:18:18.320Z,95.97
2022-10-13T03:20:44.783Z,96.18
2022-10-13T03:23:11.200Z,96.11
2022-10-13T03:25:38.669Z,96.11
2022-10-13T03:28:04.987Z,96.27
2022-10-13T03:30:31.298Z,96.38
2022-10-13T03:32:57.625Z,96.25
2022-10-13T03:35:23.954Z,96.32
2022-10-13T03:37:50.260Z,96.34
2022-10-13T03:40:17.139Z,96.40
2022-10-13T03:42:43.475Z,96.40
2022-10-13T03:45:10.611Z,96.35
2022-10-13T03:47:37.378Z,96.55
2022-10-13T03:50:05.293Z,96.51
2022-10-13T03:54:57.966Z,96.49
2022-10-13T03:57:24.521Z,96.48
2022-10-13T04:02:17.296Z,96.60
2022-10-13T04:04:43.821Z,96.64
2022-10-13T04:07:10.155Z,96.62
2022-10-13T04:12:02.998Z,96.62
2022-10-13T04:14:29.425Z,96.59
2022-10-13T04:21:54.143Z,96.66
2022-10-13T04:24:20.528Z,96.65
2022-10-13T04:26:46.850Z,96.72
2022-10-13T04:29:13.480Z,96.67
2022-10-13T04:31:42.540Z,96.75
2022-10-13T04:34:08.873Z,96.65
2022-10-13T04:39:01.497Z,96.59
2022-10-13T04:41:27.913Z,96.72
2022-10-13T04:43:54.996Z,96.76
2022-10-13T04:46:26.804Z,96.71
2022-10-13T04:48:55.676Z,96.74
2022-10-13T04:51:25.702Z,96.75
2022-10-13T04:54:00.986Z,96.72
2022-10-13T04:56:28.303Z,96.72
2022-10-13T04:58:59.707Z,96.72
2022-10-13T05:01:26.201Z,96.77
2022-10-13T05:03:54.149Z,96.59
2022-10-13T05:06:26.039Z,96.80
2022-10-13T05:11:22.828Z,96.73
2022-10-13T05:16:17.433Z,96.73
2022-10-13T05:28:35.023Z,96.72
2022-10-13T05:33:40.643Z,96.70
2022-10-13T05:36:16.386Z,96.72
2022-10-13T05:38:42.764Z,96.71
2022-10-13T05:43:38.202Z,96.74
2022-10-13T05:46:05.476Z,96.71
2022-10-13T05:48:36.228Z,96.51
2022-10-13T05:51:08.031Z,96.46
2022-10-13T05:53:37.524Z,96.48
2022-10-13T05:56:09.660Z,96.49
2022-10-13T05:58:40.649Z,96.44
2022-10-13T06:01:10.052Z,96.27
2022-10-13T06:03:37.676Z,96.14
2022-10-13T06:06:04.273Z,95.97
2022-10-13T06:08:30.701Z,95.58
2022-10-13T06:10:57.430Z,95.34
2022-10-13T06:15:50.009Z,94.55
2022-10-13T06:18:16.316Z,94.15
2022-10-13T06:20:43.557Z,93.30
2022-10-13T06:23:15.018Z,92.24
2022-10-13T06:25:52.874Z,91.14
2022-10-13T06:28:20.562Z,90.62
2022-10-13T06:30:53.315Z,89.99
2022-10-13T06:35:48.633Z,89.80
2022-10-13T06:43:08.557Z,89.08
2022-10-13T06:48:07.041Z,88.70
2022-10-13T06:50:33.518Z,88.47
2022-10-13T06:55:26.218Z,87.91
2022-10-13T06:57:52.609Z,87.96
2022-10-13T07:02:50.095Z,87.47
2022-10-13T07:05:16.512Z,87.09
2022-10-13T07:07:42.854Z,87.33
2022-10-13T07:10:09.486Z,87.25
2022-10-13T07:12:35.781Z,86.67
2022-10-13T07:15:02.084Z,86.18
2022-10-13T07:24:50.962Z,86.19
2022-10-13T07:27:19.285Z,86.07
2022-10-13T07:29:45.945Z,86.20
2022-10-13T07:32:12.410Z,85.61
2022-10-13T07:34:38.754Z,85.25
2022-10-13T07:39:31.852Z,84.28
2022-10-13T07:41:58.258Z,83.73
2022-10-13T07:44:24.747Z,84.03
2022-10-13T07:46:51.114Z,84.07
2022-10-13T07:49:17.731Z,84.18
2022-10-13T07:51:44.311Z,84.11
2022-10-13T07:54:10.671Z,84.25
2022-10-13T07:56:37.450Z,84.38
2022-10-13T08:01:32.096Z,83.79
2022-10-13T08:03:59.276Z,83.71
2022-10-13T08:06:26.190Z,83.87
2022-10-13T08:11:20.738Z,83.84
2022-10-13T08:13:51.393Z,83.83
2022-10-13T08:18:48.227Z,82.69
2022-10-13T08:24:04.748Z,83.01
2022-10-13T08:31:44.201Z,82.30
2022-10-13T08:36:38.845Z,82.40
2022-10-13T08:39:05.275Z,82.18
2022-10-13T08:47:35.502Z,81.80
2022-10-13T08:50:12.186Z,81.36
2022-10-13T08:52:56.635Z,81.38
2022-10-13T08:57:51.898Z,80.84
2022-10-13T09:10:30.491Z,80.18
2022-10-13T09:12:58.682Z,80.45
2022-10-13T09:20:34.728Z,79.37
2022-10-13T09:23:04.884Z,79.46
2022-10-13T09:25:43.037Z,78.52
2022-10-13T09:28:23.665Z,77.42
2022-10-13T09:33:26.472Z,78.06
2022-10-13T09:38:26.428Z,78.33
2022-10-13T09:41:00.146Z,77.62
2022-10-13T09:43:32.182Z,77.56
2022-10-13T09:48:28.560Z,78.11
2022-10-13T09:50:56.909Z,78.06
2022-10-13T09:56:29.999Z,77.54
2022-10-13T10:01:48.602Z,74.62
2022-10-13T10:04:35.083Z,74.66
2022-10-13T10:09:44.767Z,75.10
2022-10-13T10:18:00.311Z,73.81
2022-10-13T10:23:11.136Z,73.96
2022-10-13T10:25:51.150Z,74.48
2022-10-13T10:31:28.146Z,74.65
2022-10-13T10:37:07.350Z,75.00
2022-10-13T10:39:42.982Z,74.69
2022-10-13T10:44:53.136Z,74.17
2022-10-13T10:47:26.013Z,74.04
2022-10-13T10:50:01.816Z,73.59
2022-10-13T10:55:18.107Z,73.23
2022-10-13T10:58:00.979Z,73.13
2022-10-13T11:03:14.126Z,72.21
2022-10-13T11:06:00.198Z,71.92
2022-10-13T11:14:19.831Z,72.39
2022-10-13T11:21:59.627Z,70.31
2022-10-13T11:24:36.135Z,71.12
2022-10-13T11:27:09.288Z,68.99
2022-10-13T11:29:51.799Z,69.54
2022-10-13T11:32:36.114Z,70.50
2022-10-13T11:35:05.930Z,67.84
2022-10-13T11:37:41.739Z,68.42
2022-10-13T11:43:02.702Z,67.82
2022-10-13T11:45:56.146Z,68.10
2022-10-13T11:48:41.313Z,68.42
2022-10-13T11:54:13.439Z,68.51
2022-10-13T11:59:24.859Z,69.88
2022-10-13T12:07:14.081Z,70.86
2022-10-13T12:09:50.267Z,71.37
2022-10-13T12:17:23.896Z,72.71
2022-10-13T12:19:53.355Z,72.43
2022-10-13T12:22:20.634Z,73.14
2022-10-13T12:24:59.009Z,73.92
2022-10-13T12:27:26.279Z,73.42
2022-10-13T12:37:30.957Z,74.21
2022-10-13T12:42:28.757Z,75.09
2022-10-13T12:44:56.154Z,74.91
2022-10-13T12:48:01.001Z,75.31
2022-10-13T12:53:08.661Z,78.12
2022-10-13T12:55:49.118Z,78.92
2022-10-13T12:58:20.153Z,78.96
2022-10-13T13:03:26.587Z,80.47
2022-10-13T13:06:15.727Z,80.81
2022-10-13T13:13:49.471Z,81.42
2022-10-13T13:16:18.726Z,82.07
2022-10-13T13:18:46.739Z,81.72
2022-10-13T13:21:16.085Z,81.32
2022-10-13T13:23:49.589Z,81.26
2022-10-13T13:28:52.706Z,82.53
2022-10-13T13:31:22.327Z,81.53
2022-10-13T13:41:12.930Z,81.88
2022-10-13T13:43:40.398Z,82.00
2022-10-13T13:48:33.892Z,80.87
2022-10-13T13:51:01.711Z,81.23
2022-10-13T13:53:28.110Z,81.63
2022-10-13T13:55:54.556Z,81.66
2022-10-13T13:58:20.959Z,81.75
2022-10-13T14:00:47.461Z,82.40
2022-10-13T14:08:13.630Z,81.12
2022-10-13T14:10:40.966Z,81.51
2022-10-13T14:18:00.259Z,81.71
2022-10-13T14:20:26.783Z,81.75
2022-10-13T14:22:53.626Z,81.73
2022-10-13T14:25:20.011Z,81.96
2022-10-13T14:27:46.479Z,82.01
2022-10-13T14:32:39.488Z,82.34
2022-10-13T14:35:06.130Z,82.98
2022-10-13T14:37:33.775Z,82.84
2022-10-13T14:40:00.580Z,82.93
2022-10-13T14:42:27.139Z,82.86
2022-10-13T14:47:20.059Z,82.91
2022-10-13T14:54:44.542Z,83.72
2022-10-13T14:59:42.403Z,84.01
2022-10-13T15:02:10.886Z,84.07
2022-10-13T15:04:37.297Z,84.40
2022-10-13T15:07:03.759Z,84.48
2022-10-13T15:09:45.395Z,84.96
2022-10-13T15:14:46.391Z,85.11
2022-10-13T15:17:12.740Z,85.14
2022-10-13T15:19:39.188Z,85.31
2022-10-13T15:22:05.832Z,85.59
2022-10-13T15:24:32.163Z,86.13
2022-10-13T15:27:01.529Z,85.86
2022-10-13T15:29:29.401Z,86.06
2022-10-13T15:32:07.447Z,86.12
2022-10-13T15:34:33.927Z,86.17
2022-10-13T15:37:00.262Z,86.08
2022-10-13T15:41:52.888Z,86.55
2022-10-13T15:44:20.947Z,86.66
2022-10-13T15:47:06.621Z,86.58
2022-10-13T15:49:37.440Z,86.81
2022-10-13T15:52:04.164Z,86.96
2022-10-13T15:54:30.735Z,87.13
2022-10-13T15:56:57.071Z,87.33
2022-10-13T15:59:25.366Z,87.50
2022-10-13T16:01:51.750Z,87.52
2022-10-13T16:11:37.822Z,88.41
2022-10-13T16:14:04.238Z,88.47
2022-10-13T16:18:57.303Z,88.90
2022-10-13T16:23:52.604Z,89.17
2022-10-13T16:26:19.322Z,89.30
2022-10-13T16:31:15.513Z,89.71
2022-10-13T16:33:43.578Z,89.68
2022-10-13T16:36:13.444Z,89.78
2022-10-13T16:38:39.970Z,89.91
2022-10-13T16:43:33.990Z,89.91
2022-10-13T16:46:02.791Z,89.95
2022-10-13T16:48:32.519Z,90.07
2022-10-13T16:53:29.334Z,89.79
2022-10-13T16:55:55.756Z,90.20
2022-10-13T17:00:48.406Z,90.28
2022-10-13T17:05:41.172Z,90.39
2022-10-13T17:08:07.626Z,90.46
2022-10-13T17:13:01.955Z,90.50
2022-10-13T17:17:57.828Z,91.14
2022-10-13T17:22:50.523Z,92.27
2022-10-13T17:25:17.571Z,93.26
2022-10-13T17:27:43.926Z,93.14
2022-10-13T17:32:38.607Z,93.59
2022-10-13T17:35:06.023Z,94.02
2022-10-13T17:39:58.912Z,94.57
2022-10-13T17:42:26.022Z,94.81
2022-10-13T17:44:52.354Z,94.87
2022-10-13T17:54:41.821Z,95.25
2022-10-13T17:57:08.235Z,95.16
2022-10-13T18:02:00.912Z,94.97
2022-10-13T18:04:29.291Z,95.07
2022-10-13T18:09:24.410Z,95.01
2022-10-13T18:14:20.205Z,94.68
2022-10-13T18:21:41.732Z,94.52
2022-10-13T18:26:35.713Z,94.46
2022-10-13T18:29:03.674Z,94.70
2022-10-13T18:34:06.649Z,94.93
2022-10-13T18:36:41.159Z,94.97
2022-10-13T18:39:18.328Z,94.96
2022-10-13T18:41:48.048Z,94.80
2022-10-13T18:44:15.384Z,94.49
2022-10-13T18:46:42.489Z,94.09
2022-10-13T18:51:38.690Z,93.93
2022-10-13T18:56:33.835Z,93.86
2022-10-13T18:59:01.747Z,93.61
2022-10-13T19:01:30.429Z,93.29
2022-10-13T19:03:57.383Z,93.13
2022-10-13T19:06:28.515Z,92.80
2022-10-13T19:08:56.467Z,93.04
2022-10-13T19:16:20.422Z,93.46
2022-10-13T19:18:48.019Z,93.72
2022-10-13T19:21:14.515Z,94.31
2022-10-13T19:23:40.919Z,94.61
2022-10-13T19:26:23.603Z,95.14
2022-10-13T19:28:54.402Z,94.98
2022-10-13T19:31:23.029Z,95.20
2022-10-13T19:33:50.884Z,95.21
2022-10-13T19:36:26.565Z,95.65
2022-10-13T19:38:55.130Z,95.85
2022-10-13T19:41:22.118Z,95.86
2022-10-13T19:43:49.305Z,96.10
2022-10-13T19:46:15.953Z,96.25
2022-10-13T19:51:09.222Z,96.40
2022-10-13T19:56:02.457Z,96.69
2022-10-13T20:00:55.113Z,96.70
2022-10-13T20:03:21.468Z,96.78
2022-10-13T20:05:50.430Z,96.87
2022-10-13T20:08:17.488Z,96.91
2022-10-13T20:23:03.799Z,97.63
2022-10-13T20:30:23.806Z,98.20
2022-10-13T20:35:16.502Z,98.33
2022-10-13T20:40:09.448Z,98.41
2022-10-13T20:42:35.811Z,98.56
2022-10-13T20:45:02.148Z,98.53
2022-10-13T20:47:28.495Z,98.36
2022-10-13T20:52:21.230Z,98.17
2022-10-13T20:54:47.801Z,98.07
2022-10-13T20:59:40.811Z,97.96
2022-10-13T21:04:33.474Z,98.18
2022-10-13T21:06:59.891Z,98.12
2022-10-13T21:09:26.747Z,98.20
2022-10-13T21:14:19.359Z,98.13
2022-10-13T21:16:45.707Z,98.11
2022-10-13T21:19:12.592Z,97.69
2022-10-13T21:21:39.034Z,97.54
2022-10-13T21:26:33.862Z,97.37
2022-10-13T21:29:01.013Z,97.37
2022-10-13T21:31:28.212Z,96.70
2022-10-13T21:33:54.987Z,96.25
2022-10-13T21:36:24.106Z,95.97
2022-10-13T21:41:18.044Z,94.82
2022-10-13T21:43:44.436Z,94.96
2022-10-13T21:46:12.647Z,94.93
2022-10-13T21:48:42.594Z,94.47
2022-10-13T21:56:21.028Z,94.84
2022-10-13T21:58:48.797Z,95.09
2022-10-13T22:01:16.485Z,94.98
2022-10-13T22:03:43.202Z,94.86
2022-10-13T22:06:16.042Z,95.01
2022-10-13T22:13:40.759Z,95.06
2022-10-13T22:16:10.654Z,94.85
2022-10-13T22:18:40.660Z,94.90
2022-10-13T22:21:10.593Z,94.51
2022-10-13T22:26:03.311Z,94.48
2022-10-13T22:28:36.094Z,94.74
2022-10-13T22:35:57.362Z,94.56
2022-10-13T22:38:23.686Z,94.63
2022-10-13T22:43:16.675Z,94.65
2022-10-13T22:45:51.975Z,94.61
2022-10-13T22:48:18.425Z,94.72
2022-10-13T22:50:45.267Z,94.43
2022-10-13T22:55:42.142Z,94.46
2022-10-13T23:10:24.942Z,94.85
2022-10-13T23:15:17.578Z,94.63
2022-10-13T23:17:43.923Z,94.41
2022-10-13T23:20:10.463Z,94.12
2022-10-13T23:25:03.122Z,94.37
2022-10-13T23:27:29.477Z,94.41
2022-10-13T23:34:50.878Z,94.82
2022-10-13T23:37:19.283Z,94.98
2022-10-13T23:42:12.618Z,95.15
2022-10-13T23:44:39.031Z,94.98
2022-10-13T23:49:31.689Z,95.07
2022-10-13T23:51:58.053Z,95.19
2022-10-13T23:54:24.541Z,95.13
2022-10-13T23:56:50.885Z,95.06
